sensor_id;sensor_type;location;lat;lon;timestamp;P1;durP1;ratioP1;P2;durP2;ratioP2
49784;SDS011;35679;38.732;-121.358;2023-03-01T00:02:24;2.58;;;2.40;;
49784;SDS011;35679;38.732;-121.358;2023-03-01T00:05:14;2.50;;;2.38;;
49784;SDS011;35679;38.732;-121.358;2023-03-01T00:08:03;2.42;;;2.20;;
49784;SDS011;35679;38.732;-121.358;2023-03-01T00:11:03;3.47;;;2.20;;
49784;SDS011;35679;38.732;-121.358;2023-03-01T00:13:57;2.30;;;2.17;;
49784;SDS011;35679;38.732;-121.358;2023-03-01T00:16:49;2.75;;;2.55;;
49784;SDS011;35679;38.732;-121.358;2023-03-01T00:19:39;2.53;;;2.33;;
49784;SDS011;35679;38.732;-121.358;2023-03-01T00:22:28;2.55;;;2.45;;
49784;SDS011;35679;38.732;-121.358;2023-03-01T00:25:17;4.38;;;2.40;;
49784;SDS011;35679;38.732;-121.358;2023-03-01T00:28:07;2.40;;;2.30;;
49784;SDS011;35679;38.732;-121.358;2023-03-01T00:31:01;2.40;;;2.30;;
49784;SDS011;35679;38.732;-121.358;2023-03-01T00:34:17;3.00;;;2.50;;
49784;SDS011;35679;38.732;-121.358;2023-03-01T00:37:06;2.58;;;2.38;;
49784;SDS011;35679;38.732;-121.358;2023-03-01T00:39:56;2.63;;;2.42;;
49784;SDS011;35679;38.732;-121.358;2023-03-01T00:42:45;2.45;;;2.35;;
49784;SDS011;35679;38.732;-121.358;2023-03-01T00:45:36;2.30;;;2.20;;
49784;SDS011;35679;38.732;-121.358;2023-03-01T00:48:25;2.55;;;2.45;;
49784;SDS011;35679;38.732;-121.358;2023-03-01T00:51:15;2.35;;;2.25;;
49784;SDS011;35679;38.732;-121.358;2023-03-01T00:54:09;2.75;;;2.50;;
49784;SDS011;35679;38.732;-121.358;2023-03-01T00:56:59;2.30;;;2.20;;
49784;SDS011;35679;38.732;-121.358;2023-03-01T00:59:48;2.33;;;2.22;;
49784;SDS011;35679;38.732;-121.358;2023-03-01T01:02:37;2.33;;;2.22;;
49784;SDS011;35679;38.732;-121.358;2023-03-01T01:05:27;2.60;;;2.42;;
49784;SDS011;35679;38.732;-121.358;2023-03-01T01:08:16;2.45;;;2.25;;
49784;SDS011;35679;38.732;-121.358;2023-03-01T01:11:08;2.38;;;2.28;;
49784;SDS011;35679;38.732;-121.358;2023-03-01T01:13:58;2.78;;;2.28;;
49784;SDS011;35679;38.732;-121.358;2023-03-01T01:16:48;2.30;;;2.20;;
49784;SDS011;35679;38.732;-121.358;2023-03-01T01:19:38;2.55;;;2.45;;
49784;SDS011;35679;38.732;-121.358;2023-03-01T01:22:27;2.50;;;2.40;;
49784;SDS011;35679;38.732;-121.358;2023-03-01T01:25:16;2.53;;;2.30;;
49784;SDS011;35679;38.732;-121.358;2023-03-01T01:28:07;2.33;;;2.20;;
49784;SDS011;35679;38.732;-121.358;2023-03-01T01:30:56;2.47;;;2.33;;
49784;SDS011;35679;38.732;-121.358;2023-03-01T01:33:46;2.40;;;2.30;;
49784;SDS011;35679;38.732;-121.358;2023-03-01T01:36:35;2.63;;;2.53;;
49784;SDS011;35679;38.732;-121.358;2023-03-01T01:39:25;2.63;;;2.45;;
49784;SDS011;35679;38.732;-121.358;2023-03-01T01:42:17;2.22;;;2.13;;
49784;SDS011;35679;38.732;-121.358;2023-03-01T01:48:26;2.55;;;2.45;;
49784;SDS011;35679;38.732;-121.358;2023-03-01T01:51:29;2.35;;;2.20;;
49784;SDS011;35679;38.732;-121.358;2023-03-01T01:54:28;2.30;;;2.20;;
49784;SDS011;35679;38.732;-121.358;2023-03-01T01:57:27;2.38;;;2.30;;
49784;SDS011;35679;38.732;-121.358;2023-03-01T02:00:28;2.63;;;2.53;;
49784;SDS011;35679;38.732;-121.358;2023-03-01T02:03:19;2.75;;;2.55;;
49784;SDS011;35679;38.732;-121.358;2023-03-01T02:09:10;2.65;;;2.55;;
49784;SDS011;35679;38.732;-121.358;2023-03-01T02:12:02;3.42;;;2.38;;
49784;SDS011;35679;38.732;-121.358;2023-03-01T02:14:53;2.10;;;2.10;;
49784;SDS011;35679;38.732;-121.358;2023-03-01T02:17:42;2.35;;;2.28;;
49784;SDS011;35679;38.732;-121.358;2023-03-01T02:23:33;2.42;;;2.33;;
49784;SDS011;35679;38.732;-121.358;2023-03-01T02:26:29;2.40;;;2.30;;
49784;SDS011;35679;38.732;-121.358;2023-03-01T02:29:25;2.88;;;2.67;;
49784;SDS011;35679;38.732;-121.358;2023-03-01T02:32:16;2.80;;;2.70;;
49784;SDS011;35679;38.732;-121.358;2023-03-01T02:35:14;2.67;;;2.55;;
49784;SDS011;35679;38.732;-121.358;2023-03-01T02:38:06;2.80;;;2.60;;
49784;SDS011;35679;38.732;-121.358;2023-03-01T02:40:58;2.40;;;2.30;;
49784;SDS011;35679;38.732;-121.358;2023-03-01T02:43:50;2.50;;;2.40;;
49784;SDS011;35679;38.732;-121.358;2023-03-01T02:46:43;2.63;;;2.42;;
49784;SDS011;35679;38.732;-121.358;2023-03-01T02:49:36;2.40;;;2.30;;
49784;SDS011;35679;38.732;-121.358;2023-03-01T02:55:28;2.85;;;2.65;;
49784;SDS011;35679;38.732;-121.358;2023-03-01T02:58:19;2.55;;;2.45;;
49784;SDS011;35679;38.732;-121.358;2023-03-01T03:01:09;3.15;;;2.75;;
49784;SDS011;35679;38.732;-121.358;2023-03-01T03:03:59;2.72;;;2.60;;
49784;SDS011;35679;38.732;-121.358;2023-03-01T03:06:51;2.70;;;2.60;;
49784;SDS011;35679;38.732;-121.358;2023-03-01T03:09:42;2.83;;;2.72;;
49784;SDS011;35679;38.732;-121.358;2023-03-01T03:12:32;3.08;;;2.50;;
49784;SDS011;35679;38.732;-121.358;2023-03-01T03:15:22;2.70;;;2.60;;
49784;SDS011;35679;38.732;-121.358;2023-03-01T03:18:13;2.63;;;2.42;;
49784;SDS011;35679;38.732;-121.358;2023-03-01T03:21:03;2.58;;;2.47;;
49784;SDS011;35679;38.732;-121.358;2023-03-01T03:23:58;3.70;;;2.58;;
49784;SDS011;35679;38.732;-121.358;2023-03-01T03:26:48;2.63;;;2.53;;
49784;SDS011;35679;38.732;-121.358;2023-03-01T03:29:37;2.90;;;2.70;;
49784;SDS011;35679;38.732;-121.358;2023-03-01T03:32:26;2.83;;;2.67;;
49784;SDS011;35679;38.732;-121.358;2023-03-01T03:35:15;2.85;;;2.75;;
49784;SDS011;35679;38.732;-121.358;2023-03-01T03:38:05;2.80;;;2.70;;
49784;SDS011;35679;38.732;-121.358;2023-03-01T03:41:05;3.40;;;2.60;;
49784;SDS011;35679;38.732;-121.358;2023-03-01T03:43:55;2.65;;;2.55;;
49784;SDS011;35679;38.732;-121.358;2023-03-01T03:46:45;2.58;;;2.47;;
49784;SDS011;35679;38.732;-121.358;2023-03-01T03:49:34;3.20;;;3.00;;
49784;SDS011;35679;38.732;-121.358;2023-03-01T03:52:23;3.10;;;2.85;;
49784;SDS011;35679;38.732;-121.358;2023-03-01T03:55:12;2.90;;;2.70;;
49784;SDS011;35679;38.732;-121.358;2023-03-01T03:58:02;2.72;;;2.60;;
49784;SDS011;35679;38.732;-121.358;2023-03-01T04:00:55;2.85;;;2.75;;
49784;SDS011;35679;38.732;-121.358;2023-03-01T04:03:45;3.38;;;3.10;;
49784;SDS011;35679;38.732;-121.358;2023-03-01T04:06:34;2.90;;;2.70;;
49784;SDS011;35679;38.732;-121.358;2023-03-01T04:09:24;2.40;;;2.30;;
49784;SDS011;35679;38.732;-121.358;2023-03-01T04:12:13;2.83;;;2.72;;
49784;SDS011;35679;38.732;-121.358;2023-03-01T04:15:06;2.60;;;2.50;;
49784;SDS011;35679;38.732;-121.358;2023-03-01T04:18:03;2.97;;;2.85;;
49784;SDS011;35679;38.732;-121.358;2023-03-01T04:20:53;2.72;;;2.63;;
49784;SDS011;35679;38.732;-121.358;2023-03-01T04:23:43;2.95;;;2.80;;
49784;SDS011;35679;38.732;-121.358;2023-03-01T04:26:32;2.78;;;2.67;;
49784;SDS011;35679;38.732;-121.358;2023-03-01T04:29:22;2.53;;;2.40;;
49784;SDS011;35679;38.732;-121.358;2023-03-01T04:32:11;2.78;;;2.67;;
49784;SDS011;35679;38.732;-121.358;2023-03-01T04:35:02;2.80;;;2.70;;
49784;SDS011;35679;38.732;-121.358;2023-03-01T04:37:51;2.63;;;2.53;;
49784;SDS011;35679;38.732;-121.358;2023-03-01T04:40:41;2.60;;;2.50;;
49784;SDS011;35679;38.732;-121.358;2023-03-01T04:43:31;2.85;;;2.67;;
49784;SDS011;35679;38.732;-121.358;2023-03-01T04:46:22;2.65;;;2.55;;
49784;SDS011;35679;38.732;-121.358;2023-03-01T04:49:11;2.75;;;2.58;;
49784;SDS011;35679;38.732;-121.358;2023-03-01T04:52:01;2.95;;;2.75;;
49784;SDS011;35679;38.732;-121.358;2023-03-01T04:54:51;2.60;;;2.50;;
49784;SDS011;35679;38.732;-121.358;2023-03-01T04:57:40;3.03;;;2.83;;
49784;SDS011;35679;38.732;-121.358;2023-03-01T05:00:29;2.90;;;2.72;;
49784;SDS011;35679;38.732;-121.358;2023-03-01T05:03:19;3.22;;;3.03;;
49784;SDS011;35679;38.732;-121.358;2023-03-01T05:06:09;2.65;;;2.55;;
49784;SDS011;35679;38.732;-121.358;2023-03-01T05:08:59;2.88;;;2.78;;
49784;SDS011;35679;38.732;-121.358;2023-03-01T05:11:49;3.10;;;2.90;;
49784;SDS011;35679;38.732;-121.358;2023-03-01T05:14:40;2.92;;;2.72;;
49784;SDS011;35679;38.732;-121.358;2023-03-01T05:17:30;2.97;;;2.85;;
49784;SDS011;35679;38.732;-121.358;2023-03-01T05:20:19;3.05;;;2.85;;
49784;SDS011;35679;38.732;-121.358;2023-03-01T05:23:12;3.15;;;2.90;;
49784;SDS011;35679;38.732;-121.358;2023-03-01T05:26:02;2.88;;;2.67;;
49784;SDS011;35679;38.732;-121.358;2023-03-01T05:28:54;2.90;;;2.70;;
49784;SDS011;35679;38.732;-121.358;2023-03-01T05:31:47;3.20;;;2.97;;
49784;SDS011;35679;38.732;-121.358;2023-03-01T05:34:36;2.60;;;2.50;;
49784;SDS011;35679;38.732;-121.358;2023-03-01T05:37:26;3.08;;;2.80;;
49784;SDS011;35679;38.732;-121.358;2023-03-01T05:40:18;3.45;;;3.15;;
49784;SDS011;35679;38.732;-121.358;2023-03-01T05:43:09;3.20;;;2.90;;
49784;SDS011;35679;38.732;-121.358;2023-03-01T05:45:59;3.20;;;2.83;;
49784;SDS011;35679;38.732;-121.358;2023-03-01T05:48:48;3.05;;;2.95;;
49784;SDS011;35679;38.732;-121.358;2023-03-01T05:51:38;3.20;;;3.00;;
49784;SDS011;35679;38.732;-121.358;2023-03-01T05:54:27;2.70;;;2.60;;
49784;SDS011;35679;38.732;-121.358;2023-03-01T05:57:17;2.92;;;2.72;;
49784;SDS011;35679;38.732;-121.358;2023-03-01T06:00:06;3.08;;;2.90;;
49784;SDS011;35679;38.732;-121.358;2023-03-01T06:03:00;3.25;;;2.95;;
49784;SDS011;35679;38.732;-121.358;2023-03-01T06:05:55;3.30;;;3.03;;
49784;SDS011;35679;38.732;-121.358;2023-03-01T06:08:45;3.00;;;2.80;;
49784;SDS011;35679;38.732;-121.358;2023-03-01T06:11:34;3.10;;;2.90;;
49784;SDS011;35679;38.732;-121.358;2023-03-01T06:14:24;3.20;;;3.00;;
49784;SDS011;35679;38.732;-121.358;2023-03-01T06:17:14;3.10;;;2.90;;
49784;SDS011;35679;38.732;-121.358;2023-03-01T06:20:07;3.75;;;3.55;;
49784;SDS011;35679;38.732;-121.358;2023-03-01T06:22:57;3.47;;;3.28;;
49784;SDS011;35679;38.732;-121.358;2023-03-01T06:25:48;3.17;;;2.97;;
49784;SDS011;35679;38.732;-121.358;2023-03-01T06:28:37;3.10;;;2.90;;
49784;SDS011;35679;38.732;-121.358;2023-03-01T06:31:27;3.40;;;3.10;;
49784;SDS011;35679;38.732;-121.358;2023-03-01T06:34:16;2.92;;;2.70;;
49784;SDS011;35679;38.732;-121.358;2023-03-01T06:37:06;3.63;;;3.33;;
49784;SDS011;35679;38.732;-121.358;2023-03-01T06:39:56;3.60;;;3.30;;
49784;SDS011;35679;38.732;-121.358;2023-03-01T06:42:47;3.20;;;3.00;;
49784;SDS011;35679;38.732;-121.358;2023-03-01T06:45:37;3.25;;;3.05;;
49784;SDS011;35679;38.732;-121.358;2023-03-01T06:48:26;3.10;;;2.90;;
49784;SDS011;35679;38.732;-121.358;2023-03-01T06:51:16;3.25;;;3.05;;
49784;SDS011;35679;38.732;-121.358;2023-03-01T06:54:05;3.15;;;2.95;;
49784;SDS011;35679;38.732;-121.358;2023-03-01T06:56:54;2.85;;;2.65;;
49784;SDS011;35679;38.732;-121.358;2023-03-01T06:59:44;3.13;;;2.92;;
49784;SDS011;35679;38.732;-121.358;2023-03-01T07:02:33;3.13;;;2.92;;
49784;SDS011;35679;38.732;-121.358;2023-03-01T07:05:23;3.30;;;3.10;;
49784;SDS011;35679;38.732;-121.358;2023-03-01T07:08:13;3.35;;;3.10;;
49784;SDS011;35679;38.732;-121.358;2023-03-01T07:11:02;3.15;;;2.90;;
49784;SDS011;35679;38.732;-121.358;2023-03-01T07:13:52;3.30;;;3.10;;
49784;SDS011;35679;38.732;-121.358;2023-03-01T07:16:41;2.78;;;2.67;;
49784;SDS011;35679;38.732;-121.358;2023-03-01T07:19:30;3.05;;;2.85;;
49784;SDS011;35679;38.732;-121.358;2023-03-01T07:22:20;3.10;;;3.00;;
49784;SDS011;35679;38.732;-121.358;2023-03-01T07:25:09;3.03;;;2.90;;
49784;SDS011;35679;38.732;-121.358;2023-03-01T07:27:59;3.00;;;2.83;;
49784;SDS011;35679;38.732;-121.358;2023-03-01T07:30:49;3.03;;;2.90;;
49784;SDS011;35679;38.732;-121.358;2023-03-01T07:33:38;3.00;;;2.90;;
49784;SDS011;35679;38.732;-121.358;2023-03-01T07:36:27;2.92;;;2.83;;
49784;SDS011;35679;38.732;-121.358;2023-03-01T07:39:17;3.50;;;3.13;;
49784;SDS011;35679;38.732;-121.358;2023-03-01T07:42:06;2.90;;;2.80;;
49784;SDS011;35679;38.732;-121.358;2023-03-01T07:44:56;3.25;;;3.05;;
49784;SDS011;35679;38.732;-121.358;2023-03-01T07:47:45;2.78;;;2.67;;
49784;SDS011;35679;38.732;-121.358;2023-03-01T07:50:34;3.10;;;2.90;;
49784;SDS011;35679;38.732;-121.358;2023-03-01T07:53:23;2.83;;;2.72;;
49784;SDS011;35679;38.732;-121.358;2023-03-01T07:56:13;3.10;;;2.92;;
49784;SDS011;35679;38.732;-121.358;2023-03-01T07:59:04;3.17;;;3.03;;
49784;SDS011;35679;38.732;-121.358;2023-03-01T08:01:54;3.33;;;3.13;;
49784;SDS011;35679;38.732;-121.358;2023-03-01T08:04:44;2.90;;;2.70;;
49784;SDS011;35679;38.732;-121.358;2023-03-01T08:07:34;3.15;;;2.95;;
49784;SDS011;35679;38.732;-121.358;2023-03-01T08:10:23;3.05;;;2.88;;
49784;SDS011;35679;38.732;-121.358;2023-03-01T08:13:13;2.65;;;2.55;;
49784;SDS011;35679;38.732;-121.358;2023-03-01T08:16:03;3.05;;;2.90;;
49784;SDS011;35679;38.732;-121.358;2023-03-01T08:18:53;3.33;;;3.13;;
49784;SDS011;35679;38.732;-121.358;2023-03-01T08:21:44;3.15;;;3.00;;
49784;SDS011;35679;38.732;-121.358;2023-03-01T08:24:34;2.65;;;2.55;;
49784;SDS011;35679;38.732;-121.358;2023-03-01T08:27:23;2.85;;;2.75;;
49784;SDS011;35679;38.732;-121.358;2023-03-01T08:30:12;3.40;;;3.20;;
49784;SDS011;35679;38.732;-121.358;2023-03-01T08:33:02;2.90;;;2.80;;
49784;SDS011;35679;38.732;-121.358;2023-03-01T08:35:51;3.05;;;2.85;;
49784;SDS011;35679;38.732;-121.358;2023-03-01T08:38:40;3.53;;;3.28;;
49784;SDS011;35679;38.732;-121.358;2023-03-01T08:41:30;3.22;;;3.03;;
49784;SDS011;35679;38.732;-121.358;2023-03-01T08:44:19;2.60;;;2.50;;
49784;SDS011;35679;38.732;-121.358;2023-03-01T08:47:09;3.00;;;2.80;;
49784;SDS011;35679;38.732;-121.358;2023-03-01T08:49:59;3.17;;;2.97;;
49784;SDS011;35679;38.732;-121.358;2023-03-01T08:52:48;2.95;;;2.85;;
49784;SDS011;35679;38.732;-121.358;2023-03-01T08:55:37;3.28;;;3.05;;
49784;SDS011;35679;38.732;-121.358;2023-03-01T08:58:27;2.80;;;2.70;;
49784;SDS011;35679;38.732;-121.358;2023-03-01T09:01:17;3.15;;;3.05;;
49784;SDS011;35679;38.732;-121.358;2023-03-01T09:04:08;3.28;;;3.08;;
49784;SDS011;35679;38.732;-121.358;2023-03-01T09:06:55;2.80;;;2.70;;
49784;SDS011;35679;38.732;-121.358;2023-03-01T09:09:45;3.25;;;3.05;;
49784;SDS011;35679;38.732;-121.358;2023-03-01T09:12:34;2.75;;;2.65;;
49784;SDS011;35679;38.732;-121.358;2023-03-01T09:15:24;3.25;;;3.10;;
49784;SDS011;35679;38.732;-121.358;2023-03-01T09:18:13;3.30;;;3.00;;
49784;SDS011;35679;38.732;-121.358;2023-03-01T09:21:03;2.92;;;2.80;;
49784;SDS011;35679;38.732;-121.358;2023-03-01T09:23:58;3.30;;;3.08;;
49784;SDS011;35679;38.732;-121.358;2023-03-01T09:26:47;3.17;;;2.97;;
49784;SDS011;35679;38.732;-121.358;2023-03-01T09:29:38;3.40;;;3.20;;
49784;SDS011;35679;38.732;-121.358;2023-03-01T09:32:29;2.88;;;2.78;;
49784;SDS011;35679;38.732;-121.358;2023-03-01T09:35:19;3.50;;;3.20;;
49784;SDS011;35679;38.732;-121.358;2023-03-01T09:38:11;2.88;;;2.67;;
49784;SDS011;35679;38.732;-121.358;2023-03-01T09:41:02;3.03;;;2.83;;
49784;SDS011;35679;38.732;-121.358;2023-03-01T09:44:03;3.50;;;3.20;;
49784;SDS011;35679;38.732;-121.358;2023-03-01T09:47:00;3.20;;;3.10;;
49784;SDS011;35679;38.732;-121.358;2023-03-01T09:50:13;2.90;;;2.60;;
49784;SDS011;35679;38.732;-121.358;2023-03-01T09:53:05;3.00;;;2.83;;
49784;SDS011;35679;38.732;-121.358;2023-03-01T09:59:30;2.80;;;2.70;;
49784;SDS011;35679;38.732;-121.358;2023-03-01T10:05:59;3.25;;;3.05;;
49784;SDS011;35679;38.732;-121.358;2023-03-01T10:11:50;2.80;;;2.70;;
49784;SDS011;35679;38.732;-121.358;2023-03-01T10:14:57;2.88;;;2.78;;
49784;SDS011;35679;38.732;-121.358;2023-03-01T10:18:19;2.88;;;2.78;;
49784;SDS011;35679;38.732;-121.358;2023-03-01T10:21:15;3.00;;;2.80;;
49784;SDS011;35679;38.732;-121.358;2023-03-01T10:24:10;3.10;;;2.90;;
49784;SDS011;35679;38.732;-121.358;2023-03-01T10:27:07;3.08;;;2.88;;
49784;SDS011;35679;38.732;-121.358;2023-03-01T10:32:56;2.80;;;2.70;;
49784;SDS011;35679;38.732;-121.358;2023-03-01T10:35:46;3.22;;;3.03;;
49784;SDS011;35679;38.732;-121.358;2023-03-01T10:38:53;2.70;;;2.60;;
49784;SDS011;35679;38.732;-121.358;2023-03-01T10:41:54;2.90;;;2.70;;
49784;SDS011;35679;38.732;-121.358;2023-03-01T10:44:44;3.15;;;3.05;;
49784;SDS011;35679;38.732;-121.358;2023-03-01T10:47:35;2.70;;;2.60;;
49784;SDS011;35679;38.732;-121.358;2023-03-01T10:50:24;3.10;;;2.90;;
49784;SDS011;35679;38.732;-121.358;2023-03-01T10:53:34;2.72;;;2.63;;
49784;SDS011;35679;38.732;-121.358;2023-03-01T10:56:26;2.95;;;2.85;;
49784;SDS011;35679;38.732;-121.358;2023-03-01T10:59:34;2.92;;;2.83;;
49784;SDS011;35679;38.732;-121.358;2023-03-01T11:02:28;3.00;;;2.80;;
49784;SDS011;35679;38.732;-121.358;2023-03-01T11:08:26;2.80;;;2.70;;
49784;SDS011;35679;38.732;-121.358;2023-03-01T11:11:33;2.80;;;2.70;;
49784;SDS011;35679;38.732;-121.358;2023-03-01T11:14:24;3.10;;;2.90;;
49784;SDS011;35679;38.732;-121.358;2023-03-01T11:17:17;2.80;;;2.60;;
49784;SDS011;35679;38.732;-121.358;2023-03-01T11:23:12;2.92;;;2.83;;
49784;SDS011;35679;38.732;-121.358;2023-03-01T11:26:04;3.00;;;2.90;;
49784;SDS011;35679;38.732;-121.358;2023-03-01T11:29:00;2.78;;;2.67;;
49784;SDS011;35679;38.732;-121.358;2023-03-01T11:31:59;3.03;;;2.70;;
49784;SDS011;35679;38.732;-121.358;2023-03-01T11:34:59;2.90;;;2.80;;
49784;SDS011;35679;38.732;-121.358;2023-03-01T11:38:12;2.83;;;2.65;;
49784;SDS011;35679;38.732;-121.358;2023-03-01T11:41:25;2.50;;;2.40;;
49784;SDS011;35679;38.732;-121.358;2023-03-01T11:44:21;3.00;;;2.85;;
49784;SDS011;35679;38.732;-121.358;2023-03-01T11:47:33;2.50;;;2.40;;
49784;SDS011;35679;38.732;-121.358;2023-03-01T11:50:40;2.90;;;2.70;;
49784;SDS011;35679;38.732;-121.358;2023-03-01T11:53:41;2.58;;;2.47;;
49784;SDS011;35679;38.732;-121.358;2023-03-01T11:57:49;2.83;;;2.72;;
49784;SDS011;35679;38.732;-121.358;2023-03-01T12:07:29;3.03;;;2.92;;
49784;SDS011;35679;38.732;-121.358;2023-03-01T12:17:28;2.60;;;2.50;;
49784;SDS011;35679;38.732;-121.358;2023-03-01T12:23:35;2.97;;;2.78;;
49784;SDS011;35679;38.732;-121.358;2023-03-01T12:26:35;2.60;;;2.50;;
49784;SDS011;35679;38.732;-121.358;2023-03-01T12:32:55;2.75;;;2.65;;
49784;SDS011;35679;38.732;-121.358;2023-03-01T12:36:12;2.50;;;2.40;;
49784;SDS011;35679;38.732;-121.358;2023-03-01T12:42:46;2.50;;;2.40;;
49784;SDS011;35679;38.732;-121.358;2023-03-01T12:52:11;2.60;;;2.50;;
49784;SDS011;35679;38.732;-121.358;2023-03-01T12:58:31;2.50;;;2.40;;
49784;SDS011;35679;38.732;-121.358;2023-03-01T13:01:40;2.53;;;2.40;;
49784;SDS011;35679;38.732;-121.358;2023-03-01T13:07:44;2.60;;;2.50;;
49784;SDS011;35679;38.732;-121.358;2023-03-01T13:11:04;2.63;;;2.53;;
49784;SDS011;35679;38.732;-121.358;2023-03-01T13:17:40;2.75;;;2.65;;
49784;SDS011;35679;38.732;-121.358;2023-03-01T13:23:36;2.70;;;2.60;;
49784;SDS011;35679;38.732;-121.358;2023-03-01T13:26:27;2.50;;;2.40;;
49784;SDS011;35679;38.732;-121.358;2023-03-01T13:29:26;2.80;;;2.70;;
49784;SDS011;35679;38.732;-121.358;2023-03-01T13:32:20;2.60;;;2.50;;
49784;SDS011;35679;38.732;-121.358;2023-03-01T13:35:42;3.03;;;2.88;;
49784;SDS011;35679;38.732;-121.358;2023-03-01T13:44:33;2.70;;;2.60;;
49784;SDS011;35679;38.732;-121.358;2023-03-01T13:47:29;2.60;;;2.50;;
49784;SDS011;35679;38.732;-121.358;2023-03-01T13:50:28;2.50;;;2.40;;
49784;SDS011;35679;38.732;-121.358;2023-03-01T13:53:22;2.70;;;2.58;;
49784;SDS011;35679;38.732;-121.358;2023-03-01T13:56:15;2.30;;;2.20;;
49784;SDS011;35679;38.732;-121.358;2023-03-01T13:59:22;2.85;;;2.75;;
49784;SDS011;35679;38.732;-121.358;2023-03-01T14:02:14;2.65;;;2.55;;
49784;SDS011;35679;38.732;-121.358;2023-03-01T14:05:05;2.63;;;2.53;;
49784;SDS011;35679;38.732;-121.358;2023-03-01T14:07:57;2.70;;;2.60;;
49784;SDS011;35679;38.732;-121.358;2023-03-01T14:20:31;2.70;;;2.60;;
49784;SDS011;35679;38.732;-121.358;2023-03-01T14:23:26;2.60;;;2.50;;
49784;SDS011;35679;38.732;-121.358;2023-03-01T14:26:19;2.58;;;2.47;;
49784;SDS011;35679;38.732;-121.358;2023-03-01T14:29:26;2.88;;;2.70;;
49784;SDS011;35679;38.732;-121.358;2023-03-01T14:32:22;2.42;;;2.33;;
49784;SDS011;35679;38.732;-121.358;2023-03-01T14:35:19;2.53;;;2.42;;
49784;SDS011;35679;38.732;-121.358;2023-03-01T14:41:33;2.53;;;2.42;;
49784;SDS011;35679;38.732;-121.358;2023-03-01T14:44:26;2.60;;;2.50;;
49784;SDS011;35679;38.732;-121.358;2023-03-01T14:47:30;2.80;;;2.70;;
49784;SDS011;35679;38.732;-121.358;2023-03-01T14:53:33;2.40;;;2.30;;
49784;SDS011;35679;38.732;-121.358;2023-03-01T14:56:43;2.10;;;2.10;;
49784;SDS011;35679;38.732;-121.358;2023-03-01T14:59:35;2.70;;;2.60;;
49784;SDS011;35679;38.732;-121.358;2023-03-01T15:02:25;2.42;;;2.33;;
49784;SDS011;35679;38.732;-121.358;2023-03-01T15:05:16;2.67;;;2.58;;
49784;SDS011;35679;38.732;-121.358;2023-03-01T15:08:25;2.60;;;2.50;;
49784;SDS011;35679;38.732;-121.358;2023-03-01T15:11:33;2.40;;;2.30;;
49784;SDS011;35679;38.732;-121.358;2023-03-01T15:14:40;2.50;;;2.40;;
49784;SDS011;35679;38.732;-121.358;2023-03-01T15:17:44;2.03;;;2.03;;
49784;SDS011;35679;38.732;-121.358;2023-03-01T15:20:39;2.20;;;2.10;;
49784;SDS011;35679;38.732;-121.358;2023-03-01T15:23:29;2.40;;;2.30;;
49784;SDS011;35679;38.732;-121.358;2023-03-01T15:29:22;2.28;;;2.17;;
49784;SDS011;35679;38.732;-121.358;2023-03-01T15:38:53;2.40;;;2.20;;
49784;SDS011;35679;38.732;-121.358;2023-03-01T15:41:47;2.40;;;2.30;;
49784;SDS011;35679;38.732;-121.358;2023-03-01T15:44:37;2.50;;;2.40;;
49784;SDS011;35679;38.732;-121.358;2023-03-01T15:47:30;2.40;;;2.30;;
49784;SDS011;35679;38.732;-121.358;2023-03-01T15:50:22;2.50;;;2.40;;
49784;SDS011;35679;38.732;-121.358;2023-03-01T15:53:14;2.45;;;2.35;;
49784;SDS011;35679;38.732;-121.358;2023-03-01T15:56:03;2.30;;;2.20;;
49784;SDS011;35679;38.732;-121.358;2023-03-01T15:59:01;2.47;;;2.38;;
49784;SDS011;35679;38.732;-121.358;2023-03-01T16:01:51;2.80;;;2.60;;
49784;SDS011;35679;38.732;-121.358;2023-03-01T16:04:41;2.20;;;2.20;;
49784;SDS011;35679;38.732;-121.358;2023-03-01T16:07:30;2.75;;;2.65;;
49784;SDS011;35679;38.732;-121.358;2023-03-01T16:10:20;2.50;;;2.40;;
49784;SDS011;35679;38.732;-121.358;2023-03-01T16:13:11;2.58;;;2.47;;
49784;SDS011;35679;38.732;-121.358;2023-03-01T16:16:01;2.60;;;2.50;;
49784;SDS011;35679;38.732;-121.358;2023-03-01T16:18:50;2.63;;;2.42;;
49784;SDS011;35679;38.732;-121.358;2023-03-01T16:21:42;2.30;;;2.20;;
49784;SDS011;35679;38.732;-121.358;2023-03-01T16:24:34;2.47;;;2.38;;
49784;SDS011;35679;38.732;-121.358;2023-03-01T16:27:24;2.55;;;2.45;;
49784;SDS011;35679;38.732;-121.358;2023-03-01T16:33:04;2.47;;;2.38;;
49784;SDS011;35679;38.732;-121.358;2023-03-01T16:36:12;2.55;;;2.45;;
49784;SDS011;35679;38.732;-121.358;2023-03-01T16:39:02;2.30;;;2.20;;
49784;SDS011;35679;38.732;-121.358;2023-03-01T16:41:52;2.13;;;2.13;;
49784;SDS011;35679;38.732;-121.358;2023-03-01T16:44:41;2.20;;;2.10;;
49784;SDS011;35679;38.732;-121.358;2023-03-01T16:47:30;2.17;;;2.08;;
49784;SDS011;35679;38.732;-121.358;2023-03-01T16:50:21;2.10;;;2.00;;
49784;SDS011;35679;38.732;-121.358;2023-03-01T16:53:13;2.00;;;2.00;;
49784;SDS011;35679;38.732;-121.358;2023-03-01T16:56:03;2.20;;;2.10;;
49784;SDS011;35679;38.732;-121.358;2023-03-01T16:58:56;2.47;;;2.38;;
49784;SDS011;35679;38.732;-121.358;2023-03-01T17:01:46;2.28;;;2.17;;
49784;SDS011;35679;38.732;-121.358;2023-03-01T17:04:36;2.20;;;2.10;;
49784;SDS011;35679;38.732;-121.358;2023-03-01T17:07:26;2.40;;;2.30;;
49784;SDS011;35679;38.732;-121.358;2023-03-01T17:10:16;2.33;;;2.22;;
49784;SDS011;35679;38.732;-121.358;2023-03-01T17:13:05;2.42;;;2.33;;
49784;SDS011;35679;38.732;-121.358;2023-03-01T17:15:55;2.42;;;2.33;;
49784;SDS011;35679;38.732;-121.358;2023-03-01T17:18:44;2.10;;;2.10;;
49784;SDS011;35679;38.732;-121.358;2023-03-01T17:21:35;2.30;;;2.20;;
49784;SDS011;35679;38.732;-121.358;2023-03-01T17:24:24;2.25;;;2.15;;
49784;SDS011;35679;38.732;-121.358;2023-03-01T17:27:14;2.33;;;2.22;;
49784;SDS011;35679;38.732;-121.358;2023-03-01T17:30:05;2.28;;;2.15;;
49784;SDS011;35679;38.732;-121.358;2023-03-01T17:32:56;2.45;;;2.35;;
49784;SDS011;35679;38.732;-121.358;2023-03-01T17:35:45;4.10;;;2.45;;
49784;SDS011;35679;38.732;-121.358;2023-03-01T17:38:35;2.70;;;2.50;;
49784;SDS011;35679;38.732;-121.358;2023-03-01T17:41:24;2.30;;;2.20;;
49784;SDS011;35679;38.732;-121.358;2023-03-01T17:44:14;2.30;;;2.20;;
49784;SDS011;35679;38.732;-121.358;2023-03-01T17:47:04;2.30;;;2.17;;
49784;SDS011;35679;38.732;-121.358;2023-03-01T17:49:53;2.00;;;2.00;;
49784;SDS011;35679;38.732;-121.358;2023-03-01T17:52:43;2.17;;;2.10;;
49784;SDS011;35679;38.732;-121.358;2023-03-01T17:55:32;2.40;;;2.30;;
49784;SDS011;35679;38.732;-121.358;2023-03-01T17:58:21;3.13;;;2.35;;
49784;SDS011;35679;38.732;-121.358;2023-03-01T18:01:12;2.35;;;2.25;;
49784;SDS011;35679;38.732;-121.358;2023-03-01T18:04:03;2.20;;;2.20;;
49784;SDS011;35679;38.732;-121.358;2023-03-01T18:06:53;2.30;;;2.20;;
49784;SDS011;35679;38.732;-121.358;2023-03-01T18:09:43;2.30;;;2.20;;
49784;SDS011;35679;38.732;-121.358;2023-03-01T18:12:32;2.17;;;2.10;;
49784;SDS011;35679;38.732;-121.358;2023-03-01T18:15:21;2.60;;;2.50;;
49784;SDS011;35679;38.732;-121.358;2023-03-01T18:18:11;2.33;;;2.22;;
49784;SDS011;35679;38.732;-121.358;2023-03-01T18:21:00;2.75;;;2.20;;
49784;SDS011;35679;38.732;-121.358;2023-03-01T18:23:50;2.28;;;2.20;;
49784;SDS011;35679;38.732;-121.358;2023-03-01T18:26:40;2.30;;;2.20;;